createdAt,value
2023-01-29T00:00:16.216Z,10.43
2023-01-29T00:02:44.602Z,11.40
2023-01-29T00:05:26.956Z,12.87
2023-01-29T00:07:56.157Z,13.83
2023-01-29T00:10:25.282Z,12.43
2023-01-29T00:12:53.432Z,12.30
2023-01-29T00:15:22.871Z,13.40
2023-01-29T00:17:50.967Z,11.53
2023-01-29T00:20:19.527Z,12.07
2023-01-29T00:22:47.744Z,12.50
2023-01-29T00:25:15.859Z,12.00
2023-01-29T00:27:44.719Z,12.20
2023-01-29T00:30:13.956Z,10.97
2023-01-29T00:32:43.657Z,12.00
2023-01-29T00:35:12.449Z,10.80
2023-01-29T00:37:40.573Z,12.80
2023-01-29T00:40:10.389Z,11.90
2023-01-29T00:43:04.333Z,11.23
2023-01-29T00:45:32.441Z,10.97
2023-01-29T00:48:02.018Z,10.90
2023-01-29T00:50:30.187Z,11.33
2023-01-29T00:52:58.337Z,10.83
2023-01-29T00:55:26.423Z,12.23
2023-01-29T00:57:54.542Z,11.47
2023-01-29T01:00:24.893Z,12.90
2023-01-29T01:03:06.743Z,13.20
2023-01-29T01:05:37.098Z,13.03
2023-01-29T01:08:25.804Z,13.30
2023-01-29T01:11:03.298Z,13.53
2023-01-29T01:13:32.956Z,12.97
2023-01-29T01:16:01.978Z,13.77
2023-01-29T01:18:31.491Z,12.90
2023-01-29T01:21:01.129Z,13.53
2023-01-29T01:23:29.195Z,12.63
2023-01-29T01:25:57.342Z,12.10
2023-01-29T01:28:25.548Z,11.93
2023-01-29T01:30:53.710Z,12.63
2023-01-29T01:33:22.041Z,12.10
2023-01-29T01:35:50.144Z,12.93
2023-01-29T01:38:19.602Z,13.73
2023-01-29T01:40:47.781Z,14.23
2023-01-29T01:43:15.906Z,11.83
2023-01-29T01:45:46.606Z,12.27
2023-01-29T01:48:18.540Z,18.33
2023-01-29T01:50:49.303Z,15.13
2023-01-29T01:53:23.358Z,13.67
2023-01-29T01:55:56.702Z,12.33
2023-01-29T01:58:28.251Z,14.63
2023-01-29T02:00:56.904Z,14.17
2023-01-29T02:03:46.163Z,15.03
2023-01-29T02:06:31.861Z,14.23
2023-01-29T02:09:23.523Z,14.67
2023-01-29T02:11:52.638Z,13.00
2023-01-29T02:14:21.318Z,12.60
2023-01-29T02:16:49.538Z,11.80
2023-01-29T02:19:25.711Z,11.13
2023-01-29T02:22:33.686Z,11.40
2023-01-29T02:25:33.309Z,11.23
2023-01-29T02:28:21.571Z,11.70
2023-01-29T02:38:46.646Z,11.57
2023-01-29T02:41:22.929Z,11.03
2023-01-29T02:43:59.551Z,11.57
2023-01-29T02:46:34.396Z,11.63
2023-01-29T02:49:11.687Z,12.00
2023-01-29T02:51:44.282Z,10.60
2023-01-29T02:54:21.453Z,10.70
2023-01-29T02:56:55.092Z,11.63
2023-01-29T02:59:28.400Z,11.60
2023-01-29T03:07:46.074Z,12.73
2023-01-29T03:10:19.563Z,13.20
2023-01-29T03:12:55.519Z,13.07
2023-01-29T03:15:30.837Z,13.60
2023-01-29T03:18:06.827Z,12.00
2023-01-29T03:20:40.396Z,11.40
2023-01-29T03:23:13.099Z,10.83
2023-01-29T03:26:01.131Z,11.40
2023-01-29T03:28:48.144Z,11.57
2023-01-29T03:31:36.039Z,11.87
2023-01-29T03:34:16.593Z,11.03
2023-01-29T03:36:55.774Z,11.67
2023-01-29T03:39:25.383Z,11.63
2023-01-29T03:41:58.942Z,11.37
2023-01-29T03:44:37.225Z,12.43
2023-01-29T03:47:16.076Z,12.13
2023-01-29T03:49:55.755Z,11.90
2023-01-29T03:52:27.930Z,12.23
2023-01-29T03:55:01.139Z,12.73
2023-01-29T03:57:36.349Z,11.53
2023-01-29T04:00:09.971Z,12.90
2023-01-29T04:02:48.382Z,12.90
2023-01-29T04:05:20.853Z,13.43
2023-01-29T04:07:55.974Z,15.47
2023-01-29T04:10:28.385Z,12.93
2023-01-29T04:13:00.678Z,13.17
2023-01-29T04:15:31.795Z,12.97
2023-01-29T04:18:01.590Z,13.53
2023-01-29T04:20:30.190Z,13.87
2023-01-29T04:22:58.479Z,12.63
2023-01-29T04:25:29.768Z,14.00
2023-01-29T04:28:08.878Z,13.73
2023-01-29T04:30:45.832Z,12.30
2023-01-29T04:33:27.228Z,10.93
2023-01-29T04:36:12.218Z,13.67
2023-01-29T04:38:54.170Z,12.97
2023-01-29T04:41:28.716Z,12.47
2023-01-29T04:44:04.675Z,12.47
2023-01-29T04:46:40.503Z,14.33
2023-01-29T04:49:30.890Z,12.80
2023-01-29T04:52:07.153Z,12.90
2023-01-29T04:54:45.189Z,12.07
2023-01-29T04:57:19.196Z,12.30
2023-01-29T04:59:51.384Z,13.33
2023-01-29T05:02:20.690Z,12.33
2023-01-29T05:04:51.134Z,13.90
2023-01-29T05:07:21.027Z,14.10
2023-01-29T05:09:49.790Z,12.80
2023-01-29T05:12:19.315Z,12.93
2023-01-29T05:14:49.190Z,14.87
2023-01-29T05:21:03.062Z,13.40
2023-01-29T05:23:31.258Z,14.20
2023-01-29T05:25:59.391Z,17.90
2023-01-29T05:28:26.572Z,14.07
2023-01-29T05:30:56.636Z,13.20
2023-01-29T05:33:26.709Z,13.00
2023-01-29T05:35:55.525Z,15.93
2023-01-29T05:38:25.145Z,14.33
2023-01-29T05:40:54.086Z,15.30
2023-01-29T05:43:25.413Z,15.27
2023-01-29T05:45:54.716Z,14.87
2023-01-29T05:48:23.024Z,15.83
2023-01-29T05:50:51.821Z,16.93
2023-01-29T05:53:19.950Z,13.67
2023-01-29T05:55:49.928Z,17.50
2023-01-29T05:58:19.651Z,16.83
2023-01-29T06:00:47.839Z,16.77
2023-01-29T06:03:16.071Z,17.73
2023-01-29T06:05:44.144Z,16.07
2023-01-29T06:08:12.279Z,13.20
2023-01-29T06:10:40.433Z,14.90
2023-01-29T06:13:09.869Z,13.70
2023-01-29T06:15:40.821Z,13.43
2023-01-29T06:18:08.901Z,14.53
2023-01-29T06:20:37.951Z,12.97
2023-01-29T06:23:06.277Z,13.20
2023-01-29T06:25:34.354Z,13.60
2023-01-29T06:28:02.504Z,13.97
2023-01-29T06:30:32.456Z,13.53
2023-01-29T06:33:01.702Z,14.17
2023-01-29T06:35:30.952Z,14.10
2023-01-29T06:37:58.984Z,13.97
2023-01-29T06:40:27.059Z,12.87
2023-01-29T06:42:55.222Z,14.03
2023-01-29T06:45:24.098Z,13.80
2023-01-29T06:47:53.573Z,13.73
2023-01-29T06:50:21.616Z,14.27
2023-01-29T06:52:49.643Z,14.27
2023-01-29T06:55:18.206Z,13.17
2023-01-29T06:57:46.322Z,12.90
2023-01-29T07:00:16.059Z,14.20
2023-01-29T07:02:44.232Z,14.33
2023-01-29T07:05:13.658Z,15.60
2023-01-29T07:07:41.778Z,14.27
2023-01-29T07:10:11.135Z,15.00
2023-01-29T07:12:39.180Z,14.07
2023-01-29T07:15:08.602Z,14.00
2023-01-29T07:17:36.711Z,13.83
2023-01-29T07:20:06.037Z,14.80
2023-01-29T07:22:35.459Z,14.57
2023-01-29T07:25:03.555Z,14.73
2023-01-29T07:27:31.597Z,14.43
2023-01-29T07:29:59.759Z,14.20
2023-01-29T07:32:29.555Z,15.27
2023-01-29T07:34:57.626Z,13.77
2023-01-29T07:37:25.723Z,14.47
2023-01-29T07:39:55.292Z,14.70
2023-01-29T07:42:23.479Z,15.57
2023-01-29T07:44:51.550Z,15.10
2023-01-29T07:47:19.665Z,16.07
2023-01-29T07:49:47.794Z,15.47
2023-01-29T07:52:15.848Z,15.00
2023-01-29T07:54:43.937Z,15.43
2023-01-29T07:57:13.421Z,14.67
2023-01-29T07:59:41.522Z,15.63
2023-01-29T08:02:10.730Z,14.60
2023-01-29T08:04:38.848Z,14.93
2023-01-29T08:07:06.992Z,15.77
2023-01-29T08:09:35.054Z,15.17
2023-01-29T08:12:03.323Z,14.27
2023-01-29T08:14:32.797Z,15.47
2023-01-29T08:17:00.835Z,15.67
2023-01-29T08:19:28.933Z,15.37
2023-01-29T08:21:57.007Z,15.60
2023-01-29T08:24:31.276Z,15.77
2023-01-29T08:27:10.061Z,13.80
2023-01-29T08:29:39.529Z,14.87
2023-01-29T08:32:11.192Z,15.90
2023-01-29T08:34:39.295Z,14.77
2023-01-29T08:37:07.320Z,15.77
2023-01-29T08:39:35.430Z,13.97
2023-01-29T08:42:03.480Z,15.73
2023-01-29T08:44:31.598Z,15.13
2023-01-29T08:47:01.034Z,15.23
2023-01-29T08:49:29.075Z,13.80
2023-01-29T08:51:57.561Z,15.83
2023-01-29T08:54:25.579Z,14.37
2023-01-29T08:56:53.719Z,14.47
2023-01-29T08:59:22.884Z,15.07
2023-01-29T09:01:50.944Z,13.43
2023-01-29T09:04:20.396Z,14.00
2023-01-29T09:06:48.488Z,14.20
2023-01-29T09:09:16.695Z,14.33
2023-01-29T09:11:44.884Z,14.10
2023-01-29T09:14:14.559Z,15.23
2023-01-29T09:16:43.083Z,15.73
2023-01-29T09:19:11.360Z,14.83
2023-01-29T09:21:40.780Z,14.80
2023-01-29T09:24:09.057Z,15.63
2023-01-29T09:26:37.363Z,15.57
2023-01-29T09:29:05.465Z,16.30
2023-01-29T09:31:33.639Z,14.20
2023-01-29T09:34:01.760Z,15.13
2023-01-29T09:36:29.862Z,13.60
2023-01-29T09:38:59.282Z,14.67
2023-01-29T09:41:42.492Z,13.83
2023-01-29T09:44:18.675Z,12.63
2023-01-29T09:46:49.578Z,13.73
2023-01-29T09:49:25.981Z,14.37
2023-01-29T09:51:59.752Z,13.60
2023-01-29T09:54:33.903Z,13.40
2023-01-29T09:57:02.294Z,13.20
2023-01-29T09:59:33.183Z,13.43
2023-01-29T10:02:10.290Z,13.97
2023-01-29T10:05:13.211Z,12.87
2023-01-29T10:08:03.865Z,13.40
2023-01-29T10:10:45.843Z,13.50
2023-01-29T10:13:22.212Z,13.83
2023-01-29T10:16:09.080Z,13.57
2023-01-29T10:18:58.446Z,13.03
2023-01-29T10:21:48.700Z,13.93
2023-01-29T10:24:27.216Z,12.93
2023-01-29T10:26:57.178Z,12.63
2023-01-29T10:29:26.306Z,12.63
2023-01-29T10:31:59.538Z,12.83
2023-01-29T10:34:33.235Z,13.70
2023-01-29T10:37:02.130Z,14.03
2023-01-29T10:39:32.482Z,12.57
2023-01-29T10:42:16.099Z,13.07
2023-01-29T10:45:07.327Z,12.50
2023-01-29T10:48:19.011Z,12.37
2023-01-29T10:50:51.505Z,12.63
2023-01-29T10:53:44.750Z,12.70
2023-01-29T10:56:33.981Z,12.40
2023-01-29T10:59:09.599Z,12.80
2023-01-29T11:01:37.871Z,12.43
2023-01-29T11:04:07.885Z,12.03
2023-01-29T11:06:37.481Z,11.67
2023-01-29T11:09:10.998Z,12.47
2023-01-29T11:11:45.500Z,12.63
2023-01-29T11:14:20.146Z,11.40
2023-01-29T11:16:49.683Z,12.03
2023-01-29T11:19:18.273Z,11.57
2023-01-29T11:21:56.619Z,11.23
2023-01-29T11:24:25.525Z,11.47
2023-01-29T11:26:57.240Z,10.77
2023-01-29T11:29:38.333Z,11.00
2023-01-29T11:32:08.595Z,10.73
2023-01-29T11:34:56.710Z,11.80
2023-01-29T11:37:25.115Z,10.50
2023-01-29T11:39:53.297Z,10.73
2023-01-29T11:42:23.005Z,10.33
2023-01-29T11:44:52.423Z,11.60
2023-01-29T11:47:24.112Z,11.33
2023-01-29T11:49:54.684Z,11.23
2023-01-29T11:52:25.111Z,10.93
2023-01-29T11:54:58.616Z,11.80
2023-01-29T11:57:30.735Z,11.13
2023-01-29T12:00:04.233Z,10.57
2023-01-29T12:02:37.197Z,10.67
2023-01-29T12:05:08.588Z,11.17
2023-01-29T12:07:43.122Z,10.50
2023-01-29T12:10:32.202Z,9.77
2023-01-29T12:13:06.261Z,11.30
2023-01-29T12:15:35.823Z,11.20
2023-01-29T12:18:09.480Z,11.63
2023-01-29T12:20:43.401Z,11.70
2023-01-29T12:23:26.818Z,11.27
2023-01-29T12:26:01.741Z,12.37
2023-01-29T12:28:43.735Z,11.70
2023-01-29T12:31:30.797Z,11.20
2023-01-29T12:34:06.004Z,11.47
2023-01-29T12:36:39.507Z,11.83
2023-01-29T12:39:10.190Z,12.13
2023-01-29T12:41:45.750Z,11.77
2023-01-29T12:44:19.391Z,11.23
2023-01-29T12:46:52.883Z,11.77
2023-01-29T12:49:26.082Z,12.10
2023-01-29T12:52:00.187Z,13.90
2023-01-29T12:54:36.468Z,13.87
2023-01-29T12:57:10.440Z,12.93
2023-01-29T12:59:44.526Z,11.73
2023-01-29T13:02:31.230Z,11.33
2023-01-29T13:05:03.868Z,11.77
2023-01-29T13:07:36.180Z,11.53
2023-01-29T13:10:10.927Z,12.10
2023-01-29T13:12:44.194Z,11.67
2023-01-29T13:15:23.786Z,12.80
2023-01-29T13:17:57.968Z,11.83
2023-01-29T13:20:30.369Z,12.33
2023-01-29T13:23:07.230Z,12.17
2023-01-29T13:25:35.306Z,12.60
2023-01-29T13:28:04.298Z,11.63
2023-01-29T13:30:34.100Z,13.20
2023-01-29T13:33:12.871Z,13.47
2023-01-29T13:35:44.091Z,13.07
2023-01-29T13:38:26.658Z,14.17
2023-01-29T13:40:58.210Z,13.40
2023-01-29T13:43:26.517Z,13.67
2023-01-29T13:45:55.835Z,13.73
2023-01-29T13:48:28.316Z,13.30
2023-01-29T13:51:00.804Z,13.00
2023-01-29T13:53:34.717Z,15.57
2023-01-29T13:56:30.171Z,16.90
2023-01-29T13:58:59.204Z,17.63
2023-01-29T14:02:03.838Z,17.33
2023-01-29T14:04:34.221Z,16.40
2023-01-29T14:07:04.122Z,14.80
2023-01-29T14:09:51.586Z,15.97
2023-01-29T14:12:42.246Z,14.70
2023-01-29T14:15:23.345Z,14.03
2023-01-29T14:18:18.317Z,14.77
2023-01-29T14:20:59.705Z,15.40
2023-01-29T14:23:42.027Z,15.03
2023-01-29T14:26:31.007Z,14.00
2023-01-29T14:29:06.378Z,16.07
2023-01-29T14:31:54.333Z,14.97
2023-01-29T14:34:29.389Z,14.87
2023-01-29T14:37:02.599Z,15.70
2023-01-29T14:39:36.348Z,14.10
2023-01-29T14:42:07.095Z,16.60
2023-01-29T14:45:11.305Z,14.30
2023-01-29T14:48:18.025Z,15.50
2023-01-29T14:50:57.576Z,15.27
2023-01-29T14:53:34.918Z,16.63
2023-01-29T14:56:11.153Z,15.87
2023-01-29T14:58:43.800Z,15.10
2023-01-29T15:01:22.051Z,15.50
2023-01-29T15:03:53.431Z,15.23
2023-01-29T15:06:29.055Z,15.87
2023-01-29T15:09:06.139Z,13.37
2023-01-29T15:11:43.078Z,14.47
2023-01-29T15:14:24.109Z,15.27
2023-01-29T15:17:05.851Z,14.67
2023-01-29T15:19:37.456Z,15.40
2023-01-29T15:22:11.078Z,15.93
2023-01-29T15:24:42.089Z,14.73
2023-01-29T15:27:14.547Z,14.83
2023-01-29T15:29:44.420Z,15.80
2023-01-29T15:32:20.484Z,15.80
2023-01-29T15:34:50.367Z,15.10
2023-01-29T15:37:29.737Z,16.47
2023-01-29T15:40:00.816Z,15.10
2023-01-29T15:42:30.266Z,16.03
2023-01-29T15:44:58.370Z,14.77
2023-01-29T15:47:31.610Z,16.17
2023-01-29T15:50:01.197Z,15.20
2023-01-29T15:52:33.037Z,15.83
2023-01-29T15:55:06.053Z,15.80
2023-01-29T15:57:40.471Z,13.80
2023-01-29T16:00:18.441Z,15.50
2023-01-29T16:02:46.629Z,14.97
2023-01-29T16:05:18.909Z,15.00
2023-01-29T16:07:47.860Z,14.90
2023-01-29T16:10:20.409Z,15.73
2023-01-29T16:12:51.793Z,14.73
2023-01-29T16:15:32.217Z,14.27
2023-01-29T16:18:01.511Z,15.40
2023-01-29T16:20:38.683Z,16.40
2023-01-29T16:23:08.354Z,14.70
2023-01-29T16:25:40.294Z,15.13
2023-01-29T16:28:11.076Z,14.37
2023-01-29T16:30:40.173Z,14.13
2023-01-29T16:33:13.037Z,14.40
2023-01-29T16:35:42.059Z,14.37
2023-01-29T16:38:26.159Z,14.23
2023-01-29T16:41:15.345Z,13.80
2023-01-29T16:43:49.215Z,14.50
2023-01-29T16:46:32.585Z,12.97
2023-01-29T16:49:01.319Z,13.97
2023-01-29T16:51:31.069Z,14.60
2023-01-29T16:54:07.821Z,13.40
2023-01-29T16:56:39.730Z,16.00
2023-01-29T16:59:08.266Z,16.53
2023-01-29T17:01:37.449Z,14.43
2023-01-29T17:04:11.525Z,13.80
2023-01-29T17:06:42.501Z,13.73
2023-01-29T17:09:22.505Z,15.97
2023-01-29T17:11:57.017Z,13.90
2023-01-29T17:14:26.050Z,14.53
2023-01-29T17:16:57.142Z,14.37
2023-01-29T17:19:25.998Z,14.73
2023-01-29T17:29:54.215Z,14.33
2023-01-29T17:32:22.614Z,13.33
2023-01-29T17:34:52.842Z,13.27
2023-01-29T17:37:20.879Z,13.90
2023-01-29T17:39:52.663Z,14.37
2023-01-29T17:42:20.811Z,14.47
2023-01-29T17:44:48.929Z,14.20
2023-01-29T17:47:18.388Z,14.23
2023-01-29T17:49:46.717Z,13.80
2023-01-29T17:52:14.772Z,12.50
2023-01-29T17:54:42.860Z,12.70
2023-01-29T17:57:14.438Z,13.93
2023-01-29T17:59:43.990Z,13.50
2023-01-29T18:02:29.108Z,13.17
2023-01-29T18:04:59.344Z,13.50
2023-01-29T18:07:27.508Z,12.47
2023-01-29T18:09:55.572Z,12.27
2023-01-29T18:12:23.692Z,12.73
2023-01-29T18:14:51.759Z,13.37
2023-01-29T18:17:22.378Z,13.03
2023-01-29T18:19:50.765Z,13.03
2023-01-29T18:22:20.283Z,13.70
2023-01-29T18:24:48.342Z,12.40
2023-01-29T18:31:07.328Z,12.77
2023-01-29T18:33:36.937Z,18.30
2023-01-29T18:36:06.767Z,13.57
2023-01-29T18:38:36.193Z,13.60
2023-01-29T18:41:05.938Z,13.77
2023-01-29T18:43:34.043Z,14.30
2023-01-29T18:46:02.349Z,13.53
2023-01-29T18:48:31.131Z,13.87
2023-01-29T18:50:59.326Z,13.13
2023-01-29T18:53:27.430Z,12.80
2023-01-29T18:55:58.656Z,12.57
2023-01-29T18:58:36.940Z,13.70
2023-01-29T19:01:09.283Z,11.43
2023-01-29T19:03:37.989Z,11.97
2023-01-29T19:06:07.851Z,13.07
2023-01-29T19:08:36.147Z,13.73
2023-01-29T19:11:08.991Z,12.20
2023-01-29T19:13:38.101Z,12.77
2023-01-29T19:16:09.099Z,13.73
2023-01-29T19:18:37.561Z,13.10
2023-01-29T19:21:08.911Z,12.67
2023-01-29T19:23:37.083Z,13.00
2023-01-29T19:26:06.880Z,12.17
2023-01-29T19:28:35.358Z,12.70
2023-01-29T19:31:03.570Z,12.90
2023-01-29T19:33:31.710Z,12.20
2023-01-29T19:36:00.559Z,12.67
2023-01-29T19:38:29.239Z,12.03
2023-01-29T19:40:57.351Z,13.97
2023-01-29T19:43:30.530Z,12.60
2023-01-29T19:46:00.122Z,12.87
2023-01-29T19:48:28.872Z,12.13
2023-01-29T19:50:58.553Z,13.50
2023-01-29T19:53:28.631Z,13.33
2023-01-29T19:56:01.025Z,13.03
2023-01-29T19:58:31.208Z,14.00
2023-01-29T20:01:00.963Z,14.33
2023-01-29T20:03:30.047Z,12.57
2023-01-29T20:06:02.807Z,12.70
2023-01-29T20:08:31.013Z,14.87
2023-01-29T20:10:59.206Z,14.00
2023-01-29T20:13:27.597Z,13.30
2023-01-29T20:15:57.436Z,14.23
2023-01-29T20:18:25.551Z,13.27
2023-01-29T20:20:54.009Z,13.90
2023-01-29T20:23:36.600Z,13.97
2023-01-29T20:26:06.872Z,14.23
2023-01-29T20:28:36.130Z,14.87
2023-01-29T20:31:06.804Z,14.17
2023-01-29T20:33:38.161Z,13.63
2023-01-29T20:36:09.077Z,15.63
2023-01-29T20:38:37.251Z,14.30
2023-01-29T20:41:06.645Z,15.17
2023-01-29T20:43:35.131Z,14.23
2023-01-29T20:46:05.775Z,15.23
2023-01-29T20:48:34.477Z,15.70
2023-01-29T20:51:09.916Z,15.60
2023-01-29T20:53:38.491Z,16.03
2023-01-29T20:56:07.599Z,14.30
2023-01-29T20:58:36.061Z,17.90
2023-01-29T21:01:10.688Z,14.83
2023-01-29T21:03:39.628Z,16.57
2023-01-29T21:06:09.074Z,15.40
2023-01-29T21:08:38.221Z,14.87
2023-01-29T21:11:07.816Z,15.13
2023-01-29T21:13:36.275Z,15.17
2023-01-29T21:16:04.957Z,15.77
2023-01-29T21:18:34.551Z,14.90
2023-01-29T21:21:02.698Z,14.93
2023-01-29T21:23:32.179Z,16.27
2023-01-29T21:26:03.558Z,15.67
2023-01-29T21:28:31.866Z,16.13
2023-01-29T21:31:08.028Z,15.97
2023-01-29T21:33:37.454Z,15.70
2023-01-29T21:36:06.152Z,16.30
2023-01-29T21:38:34.259Z,16.37
2023-01-29T21:41:03.459Z,15.30
2023-01-29T21:43:30.817Z,16.47
2023-01-29T21:46:00.274Z,15.73
2023-01-29T21:48:28.756Z,16.50
2023-01-29T21:50:58.230Z,16.47
2023-01-29T21:53:26.366Z,15.97
2023-01-29T21:55:59.600Z,15.13
2023-01-29T21:58:27.685Z,16.33
2023-01-29T22:00:55.789Z,15.93
2023-01-29T22:03:23.935Z,16.23
2023-01-29T22:05:53.319Z,15.57
2023-01-29T22:08:22.760Z,14.63
2023-01-29T22:10:50.858Z,16.43
2023-01-29T22:13:19.695Z,15.47
2023-01-29T22:15:47.762Z,17.17
2023-01-29T22:18:15.869Z,16.43
2023-01-29T22:20:43.902Z,17.17
2023-01-29T22:23:12.789Z,16.37
2023-01-29T22:25:43.538Z,17.03
2023-01-29T22:28:11.590Z,17.77
2023-01-29T22:30:39.768Z,16.47
2023-01-29T22:33:07.988Z,15.77
2023-01-29T22:35:36.053Z,16.83
2023-01-29T22:38:04.394Z,16.17
2023-01-29T22:40:32.654Z,16.27
2023-01-29T22:43:02.053Z,18.83
2023-01-29T22:45:30.305Z,17.80
2023-01-29T22:47:58.359Z,17.73
2023-01-29T22:50:26.383Z,17.60
2023-01-29T22:52:54.776Z,16.73
2023-01-29T22:55:22.871Z,16.30
2023-01-29T22:57:51.155Z,16.70
2023-01-29T23:00:21.729Z,17.50
2023-01-29T23:02:50.115Z,17.27
2023-01-29T23:05:18.973Z,17.60
2023-01-29T23:07:47.143Z,17.07
2023-01-29T23:10:16.210Z,17.30
2023-01-29T23:12:44.502Z,17.57
2023-01-29T23:15:12.707Z,17.00
2023-01-29T23:17:42.100Z,17.63
2023-01-29T23:20:11.379Z,19.00
2023-01-29T23:22:39.462Z,19.00
2023-01-29T23:25:08.403Z,17.90
2023-01-29T23:27:35.744Z,18.50
2023-01-29T23:30:03.835Z,17.70
2023-01-29T23:32:32.215Z,18.87
2023-01-29T23:35:01.754Z,19.53
2023-01-29T23:37:29.836Z,18.13
2023-01-29T23:39:57.946Z,19.20
2023-01-29T23:42:25.977Z,19.27
2023-01-29T23:44:54.129Z,19.10
2023-01-29T23:47:22.162Z,19.33
2023-01-29T23:49:50.234Z,18.87
2023-01-29T23:52:19.876Z,19.33
2023-01-29T23:54:47.925Z,19.00
2023-01-29T23:57:16.009Z,20.00
2023-01-29T23:59:44.088Z,20.47
